createdAt,value
2023-10-08T00:01:43.265Z,8.68
2023-10-08T00:04:12.741Z,7.40
2023-10-08T00:06:41.006Z,8.23
2023-10-08T00:09:09.905Z,8.35
2023-10-08T00:11:41.919Z,9.93
2023-10-08T00:14:12.118Z,8.55
2023-10-08T00:16:41.230Z,8.15
2023-10-08T00:19:15.480Z,8.48
2023-10-08T00:21:46.194Z,10.25
2023-10-08T00:24:14.468Z,7.57
2023-10-08T00:26:44.368Z,9.32
2023-10-08T00:29:22.448Z,8.70
2023-10-08T00:31:51.550Z,9.20
2023-10-08T00:34:20.794Z,8.48
2023-10-08T00:36:51.237Z,9.25
2023-10-08T00:39:23.980Z,8.95
2023-10-08T00:41:59.491Z,7.45
2023-10-08T00:44:31.450Z,8.68
2023-10-08T00:47:01.978Z,9.02
2023-10-08T00:49:49.064Z,7.78
2023-10-08T00:52:30.732Z,12.13
2023-10-08T00:55:10.373Z,8.40
2023-10-08T00:57:43.912Z,11.20
2023-10-08T01:00:22.498Z,10.90
2023-10-08T01:02:56.472Z,8.20
2023-10-08T01:05:43.131Z,9.90
2023-10-08T01:08:14.105Z,11.05
2023-10-08T01:10:47.977Z,10.75
2023-10-08T01:13:21.993Z,8.35
2023-10-08T01:15:52.400Z,13.27
2023-10-08T01:18:30.264Z,9.68
2023-10-08T01:21:05.707Z,8.77
2023-10-08T01:23:35.362Z,8.00
2023-10-08T01:26:11.888Z,9.10
2023-10-08T01:28:41.316Z,10.98
2023-10-08T01:31:13.672Z,9.77
2023-10-08T01:33:48.715Z,14.23
2023-10-08T01:36:17.020Z,7.35
2023-10-08T01:38:50.154Z,8.70
2023-10-08T01:41:21.195Z,12.57
2023-10-08T01:43:51.189Z,11.35
2023-10-08T01:46:22.960Z,10.90
2023-10-08T01:48:54.764Z,12.75
2023-10-08T01:51:36.834Z,13.70
2023-10-08T01:54:11.954Z,10.88
2023-10-08T01:59:13.052Z,8.75
2023-10-08T02:01:42.073Z,14.40
2023-10-08T02:04:11.006Z,9.10
2023-10-08T02:06:40.849Z,10.10
2023-10-08T02:09:11.455Z,11.98
2023-10-08T02:11:47.578Z,10.32
2023-10-08T02:14:16.886Z,9.57
2023-10-08T02:16:45.940Z,14.18
2023-10-08T02:19:15.466Z,9.43
2023-10-08T02:21:47.375Z,10.38
2023-10-08T02:24:18.510Z,11.02
2023-10-08T02:26:46.952Z,9.90
2023-10-08T02:29:18.214Z,11.45
2023-10-08T02:31:46.773Z,9.68
2023-10-08T02:34:15.386Z,12.13
2023-10-08T02:36:44.918Z,8.73
2023-10-08T02:39:18.548Z,9.85
2023-10-08T02:41:49.075Z,11.07
2023-10-08T02:44:18.716Z,9.77
2023-10-08T02:46:48.693Z,9.40
2023-10-08T02:49:21.505Z,11.60
2023-10-08T02:51:51.795Z,14.05
2023-10-08T02:54:20.193Z,11.45
2023-10-08T02:56:53.230Z,10.20
2023-10-08T02:59:23.182Z,12.13
2023-10-08T03:01:57.177Z,13.90
2023-10-08T03:04:29.262Z,11.50
2023-10-08T03:06:57.876Z,10.85
2023-10-08T03:09:27.668Z,9.20
2023-10-08T03:11:59.333Z,10.18
2023-10-08T03:14:43.091Z,10.20
2023-10-08T03:17:17.289Z,13.77
2023-10-08T03:19:47.808Z,12.52
2023-10-08T03:22:20.372Z,11.77
2023-10-08T03:24:51.932Z,10.85
2023-10-08T03:27:27.279Z,11.57
2023-10-08T03:29:56.336Z,11.30
2023-10-08T03:32:28.062Z,9.40
2023-10-08T03:34:56.539Z,10.73
2023-10-08T03:37:31.316Z,14.38
2023-10-08T03:40:26.118Z,15.97
2023-10-08T03:42:58.500Z,12.98
2023-10-08T03:45:46.166Z,12.48
2023-10-08T03:48:16.848Z,16.05
2023-10-08T03:50:45.926Z,10.98
2023-10-08T03:53:14.366Z,11.35
2023-10-08T03:55:42.803Z,10.88
2023-10-08T03:58:13.232Z,9.70
2023-10-08T04:00:43.590Z,10.38
2023-10-08T04:03:12.968Z,11.27
2023-10-08T04:06:00.556Z,8.25
2023-10-08T04:08:43.952Z,9.50
2023-10-08T04:11:29.937Z,11.48
2023-10-08T04:14:01.469Z,11.23
2023-10-08T04:16:29.939Z,14.10
2023-10-08T04:18:58.228Z,12.23
2023-10-08T04:21:28.842Z,11.77
2023-10-08T04:23:58.855Z,10.93
2023-10-08T04:26:29.019Z,9.85
2023-10-08T04:28:59.830Z,12.65
2023-10-08T04:31:38.581Z,14.57
2023-10-08T04:34:11.641Z,14.05
2023-10-08T04:36:42.062Z,10.55
2023-10-08T04:39:17.024Z,13.15
2023-10-08T04:41:46.395Z,17.27
2023-10-08T04:44:17.298Z,12.38
2023-10-08T04:46:52.996Z,11.98
2023-10-08T04:49:31.317Z,14.63
2023-10-08T04:52:02.021Z,12.32
2023-10-08T04:54:32.145Z,11.25
2023-10-08T04:57:03.448Z,12.55
2023-10-08T04:59:35.927Z,12.20
2023-10-08T05:02:21.238Z,10.77
2023-10-08T05:05:21.112Z,15.05
2023-10-08T05:08:17.974Z,15.43
2023-10-08T05:11:02.209Z,8.95
2023-10-08T05:13:36.221Z,9.77
2023-10-08T05:16:30.825Z,9.48
2023-10-08T05:19:38.574Z,13.10
2023-10-08T05:22:19.269Z,11.95
2023-10-08T05:25:08.346Z,12.18
2023-10-08T05:27:57.638Z,12.90
2023-10-08T05:30:42.824Z,37.72
2023-10-08T05:33:25.350Z,12.68
2023-10-08T05:36:04.101Z,13.43
2023-10-08T05:38:50.308Z,14.85
2023-10-08T05:41:40.137Z,12.50
2023-10-08T05:44:25.439Z,20.67
2023-10-08T05:50:14.004Z,14.30
2023-10-08T05:53:02.672Z,15.27
2023-10-08T05:55:35.596Z,15.65
2023-10-08T05:58:16.006Z,13.18
2023-10-08T06:01:02.231Z,14.65
2023-10-08T06:03:47.760Z,9.95
2023-10-08T06:06:37.046Z,10.23
2023-10-08T06:09:36.174Z,11.32
2023-10-08T06:12:12.080Z,13.65
2023-10-08T06:15:08.389Z,15.15
2023-10-08T06:20:28.704Z,10.23
2023-10-08T06:23:04.680Z,13.57
2023-10-08T06:25:32.850Z,9.52
2023-10-08T06:28:01.134Z,10.48
2023-10-08T06:30:36.055Z,12.88
2023-10-08T06:33:05.080Z,10.32
2023-10-08T06:35:34.406Z,15.60
2023-10-08T06:38:08.601Z,12.95
2023-10-08T06:40:43.467Z,15.15
2023-10-08T06:43:23.087Z,12.00
2023-10-08T06:45:54.271Z,14.70
2023-10-08T06:48:24.730Z,14.52
2023-10-08T06:50:58.965Z,14.85
2023-10-08T06:53:30.857Z,11.18
2023-10-08T06:56:07.368Z,15.02
2023-10-08T06:58:35.563Z,11.40
2023-10-08T07:01:06.624Z,14.80
2023-10-08T07:03:36.170Z,10.65
2023-10-08T07:06:17.709Z,12.55
2023-10-08T07:08:56.217Z,12.63
2023-10-08T07:11:24.915Z,13.65
2023-10-08T07:13:53.313Z,9.88
2023-10-08T07:16:22.393Z,12.88
2023-10-08T07:18:52.935Z,12.65
2023-10-08T07:21:29.897Z,11.60
2023-10-08T07:24:01.013Z,10.80
2023-10-08T07:26:37.651Z,13.13
2023-10-08T07:29:09.701Z,12.38
2023-10-08T07:31:42.805Z,12.30
2023-10-08T07:34:26.673Z,14.00
2023-10-08T07:36:57.103Z,12.82
2023-10-08T07:39:35.166Z,13.93
2023-10-08T07:42:07.547Z,12.80
2023-10-08T07:44:37.228Z,14.88
2023-10-08T07:47:11.246Z,17.25
2023-10-08T07:49:39.865Z,12.82
2023-10-08T07:52:08.221Z,13.57
2023-10-08T07:54:37.711Z,11.85
2023-10-08T07:57:19.910Z,11.48
2023-10-08T07:59:49.186Z,12.70
2023-10-08T08:02:21.458Z,11.25
2023-10-08T08:04:54.132Z,15.50
2023-10-08T08:07:22.852Z,17.73
2023-10-08T08:09:59.745Z,15.15
2023-10-08T08:12:33.695Z,18.23
2023-10-08T08:15:04.596Z,18.38
2023-10-08T08:17:34.475Z,20.95
2023-10-08T08:20:18.749Z,17.73
2023-10-08T08:22:51.049Z,18.33
2023-10-08T08:25:35.223Z,20.67
2023-10-08T08:28:07.283Z,29.10
2023-10-08T08:30:37.939Z,27.13
2023-10-08T08:33:12.042Z,28.15
2023-10-08T08:35:40.869Z,40.70
2023-10-08T08:38:10.091Z,29.58
2023-10-08T08:40:41.052Z,30.50
2023-10-08T08:43:11.119Z,24.38
2023-10-08T08:45:41.786Z,28.00
2023-10-08T08:48:10.414Z,24.73
2023-10-08T08:50:40.726Z,27.73
2023-10-08T08:53:09.016Z,30.08
2023-10-08T08:55:37.454Z,29.83
2023-10-08T08:58:12.190Z,31.63
2023-10-08T09:00:42.473Z,38.88
2023-10-08T09:03:14.456Z,39.28
2023-10-08T09:05:43.547Z,36.95
2023-10-08T09:08:11.703Z,37.88
2023-10-08T09:10:52.653Z,38.63
2023-10-08T09:13:23.958Z,35.88
2023-10-08T09:15:56.189Z,38.35
2023-10-08T09:18:28.488Z,34.42
2023-10-08T09:20:57.475Z,40.63
2023-10-08T09:23:26.863Z,58.03
2023-10-08T09:26:03.965Z,51.92
2023-10-08T09:28:35.570Z,53.20
2023-10-08T09:31:06.116Z,55.55
2023-10-08T09:33:35.109Z,59.53
2023-10-08T09:36:06.797Z,55.08
2023-10-08T09:38:35.723Z,56.58
2023-10-08T09:41:04.311Z,52.03
2023-10-08T09:43:36.321Z,53.38
2023-10-08T09:46:11.409Z,48.72
2023-10-08T09:48:45.392Z,51.60
2023-10-08T09:51:15.786Z,56.67
2023-10-08T09:53:52.806Z,53.00
2023-10-08T09:56:22.397Z,54.67
2023-10-08T09:58:52.687Z,54.78
2023-10-08T10:01:23.431Z,52.53
2023-10-08T10:03:52.744Z,56.42
2023-10-08T10:06:21.479Z,52.97
2023-10-08T10:08:51.032Z,52.42
2023-10-08T10:11:19.382Z,58.80
2023-10-08T10:13:53.758Z,51.63
2023-10-08T10:16:25.313Z,48.60
2023-10-08T10:18:59.775Z,55.17
2023-10-08T10:21:33.893Z,48.60
2023-10-08T10:24:06.994Z,46.60
2023-10-08T10:26:37.188Z,31.70
2023-10-08T10:29:23.403Z,27.92
2023-10-08T10:31:55.159Z,33.13
2023-10-08T10:34:28.843Z,22.45
2023-10-08T10:37:00.224Z,17.38
2023-10-08T10:39:30.714Z,21.27
2023-10-08T10:42:03.599Z,36.30
2023-10-08T10:44:32.727Z,22.30
2023-10-08T10:47:19.946Z,22.45
2023-10-08T10:49:53.962Z,23.60
2023-10-08T10:52:33.042Z,15.70
2023-10-08T10:55:19.686Z,20.25
2023-10-08T10:57:58.081Z,24.85
2023-10-08T11:00:44.190Z,27.40
2023-10-08T11:03:25.876Z,26.10
2023-10-08T11:06:01.037Z,32.60
2023-10-08T11:08:35.921Z,38.95
2023-10-08T11:11:07.618Z,27.65
2023-10-08T11:13:40.329Z,27.33
2023-10-08T11:16:10.478Z,29.42
2023-10-08T11:18:48.127Z,31.05
2023-10-08T11:21:17.156Z,31.58
2023-10-08T11:23:53.626Z,30.23
2023-10-08T11:26:28.319Z,26.88
2023-10-08T11:28:56.546Z,32.15
2023-10-08T11:31:29.104Z,24.90
2023-10-08T11:34:09.591Z,28.05
2023-10-08T11:36:49.842Z,28.20
2023-10-08T11:39:23.799Z,33.25
2023-10-08T11:42:04.111Z,25.13
2023-10-08T11:44:37.037Z,27.55
2023-10-08T11:47:12.641Z,20.75
2023-10-08T11:49:48.403Z,23.40
2023-10-08T11:52:17.948Z,25.48
2023-10-08T11:54:49.311Z,23.98
2023-10-08T11:57:23.161Z,23.23
2023-10-08T11:59:55.562Z,21.25
2023-10-08T12:02:24.630Z,24.45
2023-10-08T12:04:54.142Z,21.80
2023-10-08T12:07:28.844Z,23.63
2023-10-08T12:09:57.278Z,19.13
2023-10-08T12:12:25.390Z,20.05
2023-10-08T12:14:56.012Z,21.17
2023-10-08T12:17:38.592Z,20.25
2023-10-08T12:20:24.166Z,18.33
2023-10-08T12:22:52.945Z,19.10
2023-10-08T12:25:21.213Z,18.10
2023-10-08T12:27:50.557Z,21.70
2023-10-08T12:30:18.749Z,16.80
2023-10-08T12:32:47.677Z,23.27
2023-10-08T12:35:17.361Z,23.50
2023-10-08T12:37:46.018Z,20.20
2023-10-08T12:40:24.088Z,20.35
2023-10-08T12:42:55.734Z,18.13
2023-10-08T12:45:24.031Z,24.50
2023-10-08T12:47:53.836Z,17.52
2023-10-08T12:50:30.924Z,17.35
2023-10-08T12:53:05.195Z,20.73
2023-10-08T12:55:40.373Z,22.38
2023-10-08T12:58:11.303Z,21.20
2023-10-08T13:00:42.448Z,19.73
2023-10-08T13:03:16.445Z,20.48
2023-10-08T13:05:46.877Z,23.77
2023-10-08T13:08:15.239Z,19.50
2023-10-08T13:10:45.260Z,22.67
2023-10-08T13:13:14.597Z,22.80
2023-10-08T13:15:43.991Z,19.35
2023-10-08T13:18:12.368Z,17.65
2023-10-08T13:20:42.973Z,19.20
2023-10-08T13:23:12.630Z,18.23
2023-10-08T13:25:41.140Z,20.55
2023-10-08T13:28:12.686Z,20.98
2023-10-08T13:30:41.156Z,21.88
2023-10-08T13:33:10.865Z,19.77
2023-10-08T13:35:39.507Z,21.48
2023-10-08T13:38:10.812Z,18.20
2023-10-08T13:40:44.640Z,18.05
2023-10-08T13:43:13.183Z,18.63
2023-10-08T13:45:43.190Z,16.52
2023-10-08T13:48:15.306Z,19.83
2023-10-08T13:50:45.093Z,21.58
2023-10-08T13:53:14.444Z,19.35
2023-10-08T13:55:52.152Z,20.83
2023-10-08T13:58:21.625Z,18.48
2023-10-08T14:00:54.052Z,21.30
2023-10-08T14:03:23.459Z,20.55
2023-10-08T14:05:52.556Z,20.77
2023-10-08T14:08:20.882Z,15.95
2023-10-08T14:10:50.712Z,22.75
2023-10-08T14:13:20.574Z,18.90
2023-10-08T14:15:57.034Z,19.45
2023-10-08T14:18:29.683Z,18.95
2023-10-08T14:20:57.924Z,21.20
2023-10-08T14:23:27.397Z,22.38
2023-10-08T14:26:04.560Z,20.13
2023-10-08T14:28:43.761Z,20.80
2023-10-08T14:31:16.426Z,18.77
2023-10-08T14:33:56.630Z,17.13
2023-10-08T14:36:43.344Z,19.23
2023-10-08T14:39:29.589Z,21.95
2023-10-08T14:42:16.330Z,18.38
2023-10-08T14:44:44.574Z,20.17
2023-10-08T14:47:12.684Z,20.65
2023-10-08T14:49:40.970Z,24.00
2023-10-08T14:52:09.209Z,23.45
2023-10-08T14:54:38.983Z,21.48
2023-10-08T14:57:09.316Z,21.05
2023-10-08T14:59:37.545Z,22.13
2023-10-08T15:02:05.672Z,20.80
2023-10-08T15:04:33.931Z,23.30
2023-10-08T15:07:02.146Z,26.35
2023-10-08T15:09:31.452Z,25.00
2023-10-08T15:11:59.624Z,20.98
2023-10-08T15:14:29.428Z,21.35
2023-10-08T15:16:58.365Z,19.25
2023-10-08T15:19:29.199Z,22.88
2023-10-08T15:21:59.208Z,21.73
2023-10-08T15:24:27.468Z,20.42
2023-10-08T15:26:57.123Z,23.52
2023-10-08T15:29:27.170Z,19.92
2023-10-08T15:31:57.981Z,20.80
2023-10-08T15:34:36.557Z,21.00
2023-10-08T15:37:07.981Z,23.48
2023-10-08T15:39:36.138Z,19.73
2023-10-08T15:42:04.882Z,19.70
2023-10-08T15:44:33.045Z,19.85
2023-10-08T15:47:03.066Z,20.88
2023-10-08T15:49:31.138Z,23.02
2023-10-08T15:51:59.181Z,20.48
2023-10-08T15:54:27.254Z,20.58
2023-10-08T15:56:55.536Z,25.63
2023-10-08T15:59:23.878Z,23.83
2023-10-08T16:01:52.128Z,20.80
2023-10-08T16:04:25.470Z,20.70
2023-10-08T16:06:53.911Z,21.60
2023-10-08T16:09:23.028Z,28.60
2023-10-08T16:11:51.187Z,24.88
2023-10-08T16:14:19.370Z,21.67
2023-10-08T16:16:48.242Z,23.00
2023-10-08T16:19:17.271Z,21.13
2023-10-08T16:21:46.756Z,20.77
2023-10-08T16:24:14.807Z,23.65
2023-10-08T16:26:43.486Z,21.33
2023-10-08T16:29:12.082Z,25.17
2023-10-08T16:31:42.243Z,20.50
2023-10-08T16:34:12.832Z,24.65
2023-10-08T16:36:41.865Z,23.15
2023-10-08T16:39:12.419Z,22.05
2023-10-08T16:41:40.998Z,22.48
2023-10-08T16:44:12.735Z,26.17
2023-10-08T16:46:42.459Z,23.25
2023-10-08T16:49:11.621Z,19.83
2023-10-08T16:51:40.243Z,23.60
2023-10-08T16:54:14.958Z,21.70
2023-10-08T16:56:45.350Z,21.83
2023-10-08T16:59:15.486Z,22.13
2023-10-08T17:01:44.934Z,24.67
2023-10-08T17:04:13.806Z,19.30
2023-10-08T17:06:42.920Z,18.20
2023-10-08T17:09:16.147Z,21.60
2023-10-08T17:11:47.079Z,20.30
2023-10-08T17:14:16.053Z,18.38
2023-10-08T17:16:44.249Z,21.08
2023-10-08T17:19:13.380Z,17.52
2023-10-08T17:21:42.112Z,21.67
2023-10-08T17:24:10.955Z,20.67
2023-10-08T17:26:39.893Z,19.88
2023-10-08T17:29:09.727Z,20.42
2023-10-08T17:31:40.410Z,20.55
2023-10-08T17:34:08.910Z,17.80
2023-10-08T17:36:37.463Z,19.73
2023-10-08T17:39:10.617Z,21.00
2023-10-08T17:41:39.362Z,19.83
2023-10-08T17:44:08.942Z,18.90
2023-10-08T17:46:38.855Z,19.13
2023-10-08T17:49:07.404Z,18.08
2023-10-08T17:51:36.925Z,17.17
2023-10-08T17:54:05.731Z,18.83
2023-10-08T17:56:34.204Z,17.23
2023-10-08T17:59:02.309Z,19.95
2023-10-08T18:01:34.587Z,17.33
2023-10-08T18:04:02.853Z,19.60
2023-10-08T18:06:32.631Z,20.30
2023-10-08T18:09:01.162Z,19.83
2023-10-08T18:11:30.537Z,21.35
2023-10-08T18:13:58.875Z,20.67
2023-10-08T18:16:27.407Z,19.40
2023-10-08T18:18:57.152Z,18.55
2023-10-08T18:21:25.499Z,22.77
2023-10-08T18:23:54.553Z,22.95
2023-10-08T18:26:24.298Z,19.10
2023-10-08T18:28:55.452Z,22.92
2023-10-08T18:31:23.970Z,20.15
2023-10-08T18:33:52.276Z,21.15
2023-10-08T18:36:21.881Z,19.85
2023-10-08T18:38:50.186Z,17.70
2023-10-08T18:41:18.394Z,19.15
2023-10-08T18:43:46.556Z,20.08
2023-10-08T18:46:15.242Z,21.27
2023-10-08T18:48:43.474Z,22.98
2023-10-08T18:51:14.131Z,18.98
2023-10-08T18:53:46.231Z,18.42
2023-10-08T18:56:16.255Z,18.90
2023-10-08T18:58:45.996Z,19.50
2023-10-08T19:01:15.545Z,19.60
2023-10-08T19:03:45.413Z,20.77
2023-10-08T19:06:14.248Z,19.05
2023-10-08T19:08:43.908Z,19.42
2023-10-08T19:11:12.903Z,20.17
2023-10-08T19:13:41.785Z,19.08
2023-10-08T19:16:11.942Z,18.20
2023-10-08T19:18:42.930Z,19.20
2023-10-08T19:21:18.781Z,18.98
2023-10-08T19:23:48.392Z,22.92
2023-10-08T19:26:18.635Z,19.83
2023-10-08T19:28:47.570Z,20.02
2023-10-08T19:31:16.407Z,19.60
2023-10-08T19:33:46.077Z,20.50
2023-10-08T19:36:15.072Z,20.65
2023-10-08T19:38:43.376Z,17.98
2023-10-08T19:41:16.870Z,19.60
2023-10-08T19:43:45.586Z,23.60
2023-10-08T19:46:14.122Z,21.58
2023-10-08T19:48:42.628Z,21.73
2023-10-08T19:51:12.776Z,22.05
2023-10-08T19:53:41.670Z,19.48
2023-10-08T19:56:12.637Z,22.38
2023-10-08T19:58:42.219Z,20.38
2023-10-08T20:01:10.345Z,18.35
2023-10-08T20:03:38.785Z,18.83
2023-10-08T20:06:08.298Z,19.75
2023-10-08T20:08:36.667Z,21.00
2023-10-08T20:11:04.925Z,21.90
2023-10-08T20:13:33.313Z,20.30
2023-10-08T20:16:06.978Z,20.70
2023-10-08T20:18:36.944Z,20.35
2023-10-08T20:21:07.148Z,18.30
2023-10-08T20:23:39.266Z,20.42
2023-10-08T20:26:15.597Z,20.85
2023-10-08T20:28:44.050Z,20.77
2023-10-08T20:31:17.503Z,19.55
2023-10-08T20:33:46.280Z,19.88
2023-10-08T20:36:18.521Z,21.38
2023-10-08T20:38:48.005Z,18.65
2023-10-08T20:41:17.813Z,20.58
2023-10-08T20:43:46.266Z,22.08
2023-10-08T20:46:19.497Z,19.77
2023-10-08T20:48:48.860Z,21.35
2023-10-08T20:51:19.127Z,19.33
2023-10-08T20:53:48.873Z,20.02
2023-10-08T20:56:17.793Z,22.60
2023-10-08T20:58:46.085Z,19.60
2023-10-08T21:01:18.580Z,21.65
2023-10-08T21:03:48.612Z,19.23
2023-10-08T21:06:22.852Z,20.13
2023-10-08T21:08:51.393Z,15.77
2023-10-08T21:11:20.207Z,19.70
2023-10-08T21:13:48.864Z,19.60
2023-10-08T21:16:17.697Z,18.60
2023-10-08T21:18:46.149Z,20.60
2023-10-08T21:21:23.830Z,20.70
2023-10-08T21:23:52.341Z,20.98
2023-10-08T21:26:20.917Z,19.15
2023-10-08T21:28:49.801Z,21.30
2023-10-08T21:31:18.065Z,21.40
2023-10-08T21:33:46.591Z,18.63
2023-10-08T21:36:16.201Z,21.20
2023-10-08T21:38:46.434Z,19.73
2023-10-08T21:41:14.686Z,23.15
2023-10-08T21:43:42.719Z,22.67
2023-10-08T21:46:14.923Z,21.38
2023-10-08T21:48:43.314Z,19.67
2023-10-08T21:51:15.701Z,20.45
2023-10-08T21:53:45.199Z,20.23
2023-10-08T21:56:13.442Z,22.35
2023-10-08T21:58:41.611Z,21.08
2023-10-08T22:01:19.419Z,20.33
2023-10-08T22:03:48.306Z,22.65
2023-10-08T22:06:18.350Z,21.67
2023-10-08T22:08:49.843Z,23.10
2023-10-08T22:11:18.230Z,21.55
2023-10-08T22:13:46.457Z,21.25
2023-10-08T22:16:19.547Z,25.65
2023-10-08T22:18:53.201Z,23.20
2023-10-08T22:21:25.620Z,20.35
2023-10-08T22:23:54.605Z,23.23
2023-10-08T22:26:25.211Z,22.40
2023-10-08T22:28:55.375Z,21.67
2023-10-08T22:31:24.293Z,20.35
2023-10-08T22:33:53.858Z,20.45
2023-10-08T22:36:29.955Z,22.95
2023-10-08T22:38:58.604Z,22.05
2023-10-08T22:41:37.154Z,21.63
2023-10-08T22:44:06.930Z,22.02
2023-10-08T22:46:43.213Z,20.40
2023-10-08T22:49:22.191Z,23.90
2023-10-08T22:51:52.165Z,21.25
2023-10-08T22:54:20.643Z,20.42
2023-10-08T22:56:50.782Z,20.80
2023-10-08T22:59:19.445Z,25.88
2023-10-08T23:01:49.193Z,21.98
2023-10-08T23:04:18.228Z,21.52
2023-10-08T23:06:48.018Z,25.08
2023-10-08T23:09:19.077Z,23.65
2023-10-08T23:11:48.564Z,22.98
2023-10-08T23:14:19.728Z,21.65
2023-10-08T23:16:50.619Z,25.63
2023-10-08T23:19:22.627Z,22.75
2023-10-08T23:21:53.033Z,21.88
2023-10-08T23:24:23.160Z,23.20
2023-10-08T23:26:51.708Z,21.92
2023-10-08T23:29:20.120Z,22.02
2023-10-08T23:31:49.937Z,22.85
2023-10-08T23:34:18.078Z,21.70
2023-10-08T23:36:46.170Z,23.88
2023-10-08T23:39:22.023Z,26.55
2023-10-08T23:41:53.142Z,20.50
2023-10-08T23:44:27.406Z,21.30
2023-10-08T23:47:05.578Z,24.25
2023-10-08T23:49:48.216Z,20.83
2023-10-08T23:52:23.893Z,30.30
2023-10-08T23:54:58.135Z,25.50
2023-10-08T23:57:47.784Z,29.58
